»·PEaware :: SKW783 KEUG-KBOI

SKW783 :: KEUG-KBOI

FLIGHT INFORMATION

Flight Status: Arrived
Operator:
SkyWest Airlines
More flights by this operator :: More flights under this callsign
Pilot: Kevin D. (11220)
Aircraft: CANADAIR CL-600 CRJ-200
(CRJ2)
More flights by this aircraft type
Origin: KEUG Mahlon Sweet
United States
Destination: KBOI Boise Air Terminal/Gowen
United States
More flights between these airports :: More routes between these airports
Route: +EUG9 DSD IMB HOSTS PARMO3
File this flight plan on PilotEdge
Remarks:
Altitude:
(Current/Filed)
31,000ft
Speed:
(Current/Filed)
450kts
Departed: 16-Feb-18 09:42 PM
Arrived: 16-Feb-18 10:39 PM
Distance/Time
Traveled:
305nm/0:56
Distance/Time
To Go:
Arrived

Flight Plot

Page will automatically refresh every two minutes.

Flight plan parsing failed; only flown route is shown


Map Options




Map Legend


Flown Route
Filed Route
Departure Airport
Arrival Airport
Navaid (VOR, NDB)
Fix

Horizontal Profiles

Position Reports

Time Latitude Longitude Heading Altitude Ground
Speed
16-Feb-18 21:26 44.118841 -123.213626 122 365ft 0kts
16-Feb-18 21:27 44.118841 -123.213626 122 365ft 0kts
16-Feb-18 21:28 44.118841 -123.213626 122 365ft 0kts
16-Feb-18 21:29 44.118841 -123.213626 122 365ft 0kts
16-Feb-18 21:30 44.118841 -123.213626 122 365ft 0kts
16-Feb-18 21:31 44.118841 -123.213626 122 365ft 0kts
16-Feb-18 21:32 44.118841 -123.213626 122 365ft 0kts
16-Feb-18 21:33 44.118841 -123.213626 122 365ft 0kts
16-Feb-18 21:34 44.118841 -123.213626 122 365ft 0kts
16-Feb-18 21:35 44.118841 -123.213626 122 365ft 0kts
16-Feb-18 21:36 44.118839 -123.213621 122 365ft 0kts
16-Feb-18 21:37 44.119061 -123.213988 190 365ft 1kts
16-Feb-18 21:38 44.119188 -123.213884 212 365ft 0kts
16-Feb-18 21:39 44.119188 -123.213884 212 365ft 0kts
16-Feb-18 21:40 44.119188 -123.213884 212 365ft 0kts
16-Feb-18 21:41 44.118770 -123.214675 264 365ft 5kts
16-Feb-18 21:42 44.118816 -123.215272 281 365ft 8kts
16-Feb-18 21:43 44.121282 -123.217008 359 365ft 15kts
16-Feb-18 21:44 44.126268 -123.217089 359 365ft 12kts
16-Feb-18 21:45 44.129417 -123.217141 359 365ft 15kts
16-Feb-18 21:46 44.134092 -123.217217 359 365ft 15kts
16-Feb-18 21:47 44.135305 -123.217786 272 365ft 0kts
16-Feb-18 21:48 44.134717 -123.219132 179 365ft 13kts
16-Feb-18 21:49 44.103984 -123.218329 177 1282ft 167kts
16-Feb-18 21:50 44.045634 -123.215630 177 3766ft 255kts
16-Feb-18 21:51 43.979450 -123.212455 177 7717ft 264kts
16-Feb-18 21:55 44.022175 -122.803326 71 12974ft 341kts
16-Feb-18 21:56 44.042850 -122.674591 71 12975ft 345kts
16-Feb-18 21:57 44.063768 -122.543017 71 14164ft 354kts
16-Feb-18 21:58 44.085062 -122.408040 71 16919ft 368kts
16-Feb-18 21:59 44.107131 -122.266897 71 19273ft 384kts
16-Feb-18 22:00 44.129617 -122.121858 71 21479ft 396kts
16-Feb-18 22:01 44.152229 -121.974722 71 23444ft 407kts
16-Feb-18 22:02 44.175928 -121.819053 70 25291ft 418kts
16-Feb-18 22:03 44.200067 -121.658897 70 27001ft 428kts
16-Feb-18 22:04 44.224437 -121.495559 70 28600ft 437kts
16-Feb-18 22:05 44.248536 -121.332356 71 29994ft 447kts
16-Feb-18 22:06 44.286996 -121.170109 62 31219ft 449kts
16-Feb-18 22:07 44.328348 -121.007804 62 31240ft 446kts
16-Feb-18 22:08 44.369692 -120.844421 62 31267ft 448kts
16-Feb-18 22:09 44.410896 -120.680445 62 31267ft 450kts
16-Feb-18 22:10 44.451909 -120.516034 62 31267ft 447kts
16-Feb-18 22:11 44.492306 -120.352961 62 31267ft 444kts
16-Feb-18 22:12 44.532047 -120.191411 63 31263ft 447kts
16-Feb-18 22:13 44.571822 -120.028520 63 31263ft 447kts
16-Feb-18 22:14 44.611169 -119.866234 63 31209ft 446kts
16-Feb-18 22:15 44.638734 -119.696899 90 31210ft 471kts
16-Feb-18 22:16 44.592556 -119.520177 106 31211ft 486kts
16-Feb-18 22:17 44.541715 -119.346930 107 31212ft 486kts
16-Feb-18 22:18 44.490204 -119.172689 107 31209ft 487kts
16-Feb-18 22:19 44.438340 -118.998484 107 31210ft 485kts
16-Feb-18 22:20 44.386528 -118.825619 107 31212ft 482kts
16-Feb-18 22:21 44.334988 -118.654789 107 29421ft 472kts
16-Feb-18 22:22 44.285189 -118.490861 107 27417ft 450kts
16-Feb-18 22:23 44.240526 -118.344684 108 25369ft 444kts
16-Feb-18 22:24 44.193657 -118.192220 109 23106ft 423kts
16-Feb-18 22:25 44.148260 -118.045100 109 20852ft 407kts
16-Feb-18 22:26 44.104115 -117.903479 109 18677ft 390kts
16-Feb-18 22:27 44.062016 -117.768734 109 16807ft 372kts
16-Feb-18 22:28 44.020021 -117.634800 111 15210ft 397kts
16-Feb-18 22:29 43.977074 -117.498929 111 13515ft 368kts
16-Feb-18 22:30 43.939068 -117.379010 111 12045ft 327kts
16-Feb-18 22:31 43.903304 -117.266588 113 11196ft 325kts
16-Feb-18 22:32 43.869541 -117.161094 112 10471ft 312kts
16-Feb-18 22:33 43.837530 -117.061167 113 9792ft 285kts
16-Feb-18 22:34 43.805274 -116.961505 113 9092ft 281kts
16-Feb-18 22:35 43.774153 -116.865784 113 8403ft 275kts
16-Feb-18 22:36 43.744926 -116.775015 113 7636ft 241kts
16-Feb-18 22:37 43.719591 -116.696078 113 6993ft 212kts
16-Feb-18 22:38 43.694807 -116.618721 112 6342ft 222kts
16-Feb-18 22:39 43.671550 -116.542313 114 5683ft 203kts
16-Feb-18 22:40 43.649188 -116.475502 115 4997ft 182kts
16-Feb-18 22:41 43.627241 -116.410883 114 4974ft 178kts
16-Feb-18 22:42 43.609451 -116.358691 115 4650ft 134kts
16-Feb-18 22:43 43.594370 -116.314309 116 4024ft 130kts
16-Feb-18 22:44 43.579073 -116.269103 116 3297ft 128kts
16-Feb-18 22:45 43.564703 -116.226889 114 2844ft 62kts
16-Feb-18 22:46 43.565013 -116.223741 4 2844ft 6kts
16-Feb-18 22:47 43.566483 -116.222307 115 2844ft 9kts
16-Feb-18 22:48 43.567394 -116.221411 334 2844ft 1kts
16-Feb-18 22:49 43.567463 -116.221459 333 2844ft 0kts
16-Feb-18 22:50 43.567463 -116.221459 333 2844ft 0kts

Navigation Log

Ident Type
Flight plan parsing failed, navigation log unavailable